Hampton Bays, New York
Current Conditions -  °F | °C
As of 10:53 AM on Thursday 23 Oct 2014 (Local Time) from KFOK Reporting Station
Overcast Overcast  
Wind Chill: 56°   Ceiling: 2100
Heat Index: 56°   Visibility: 10mi
Dew Point: 49°   Wind: 16mph
Humidity: 77%   Direction: 350°N
Pressure: 29.62"   Gusts: NA
Location:  40.87°N, 72.52°W
Report Text: KFOK 231453Z 35014KT 10SM OVC021 13/09 A2962 RMK AO2 SLP030 60007 T01330094 53005
Loading
Personal Weather Stations






























Interactive Weather Map
Tropical Storm Tracking
New forecast layout! Learn more

10-Day Weather Forecast

Advertisements
Track Severe Weather on mobile